createdAt,value
2022-12-23T00:01:45.092Z,99146.00
2022-12-23T00:04:19.992Z,99154.00
2022-12-23T00:06:53.519Z,99165.00
2022-12-23T00:09:27.191Z,99157.00
2022-12-23T00:12:18.687Z,99156.00
2022-12-23T00:15:07.724Z,99145.00
2022-12-23T00:17:45.000Z,99149.00
2022-12-23T00:20:20.657Z,99154.00
2022-12-23T00:23:06.374Z,99162.00
2022-12-23T00:25:45.040Z,99126.00
2022-12-23T00:28:22.027Z,99147.00
2022-12-23T00:31:01.467Z,99141.00
2022-12-23T00:33:37.827Z,99150.00
2022-12-23T00:36:20.006Z,99124.00
2022-12-23T00:39:11.354Z,99135.00
2022-12-23T00:42:02.949Z,99141.00
2022-12-23T00:44:36.397Z,99147.00
2022-12-23T00:47:30.143Z,99141.00
2022-12-23T00:50:02.593Z,99140.00
2022-12-23T00:52:37.386Z,99124.00
2022-12-23T00:55:10.963Z,99141.00
2022-12-23T00:57:44.447Z,99151.00
2022-12-23T01:00:20.776Z,99150.00
2022-12-23T01:03:11.998Z,99151.00
2022-12-23T01:05:45.553Z,99136.00
2022-12-23T01:08:20.481Z,99155.00
2022-12-23T01:10:54.168Z,99131.00
2022-12-23T01:13:27.596Z,99164.00
2022-12-23T01:16:08.338Z,99171.00
2022-12-23T01:18:45.731Z,99163.00
2022-12-23T01:21:19.505Z,99176.00
2022-12-23T01:23:54.460Z,99153.00
2022-12-23T01:26:28.433Z,99170.00
2022-12-23T01:29:02.173Z,99180.00
2022-12-23T01:31:36.214Z,99171.00
2022-12-23T01:34:10.499Z,99190.00
2022-12-23T01:36:46.736Z,99190.00
2022-12-23T01:39:21.843Z,99172.00
2022-12-23T01:42:12.911Z,99190.00
2022-12-23T01:45:03.427Z,99198.00
2022-12-23T01:47:44.742Z,99197.00
2022-12-23T01:50:28.242Z,99203.00
2022-12-23T01:53:08.492Z,99200.00
2022-12-23T01:55:51.693Z,99202.00
2022-12-23T01:58:31.931Z,99199.00
2022-12-23T02:01:24.395Z,99176.00
2022-12-23T02:04:02.814Z,99207.00
2022-12-23T02:06:57.228Z,99212.00
2022-12-23T02:09:34.586Z,99209.00
2022-12-23T02:12:35.967Z,99210.00
2022-12-23T02:15:51.168Z,99192.00
2022-12-23T02:19:06.119Z,99211.00
2022-12-23T02:21:57.594Z,99187.00
2022-12-23T02:25:39.225Z,99225.00
2022-12-23T02:28:44.983Z,99219.00
2022-12-23T02:31:35.672Z,99215.00
2022-12-23T02:34:18.165Z,99237.00
2022-12-23T02:37:05.943Z,99222.00
2022-12-23T02:39:47.158Z,99227.00
2022-12-23T02:42:27.362Z,99233.00
2022-12-23T02:45:10.797Z,99230.00
2022-12-23T02:47:52.604Z,99243.00
2022-12-23T02:50:34.358Z,99242.00
2022-12-23T02:53:17.184Z,99249.00
2022-12-23T02:55:54.174Z,99217.00
2022-12-23T02:58:35.245Z,99235.00
2022-12-23T03:01:12.536Z,99267.00
2022-12-23T03:03:50.892Z,99252.00
2022-12-23T03:06:28.646Z,99261.00
2022-12-23T03:09:02.776Z,99277.00
2022-12-23T03:11:51.424Z,99266.00
2022-12-23T03:14:44.236Z,99237.00
2022-12-23T03:17:39.769Z,99277.00
2022-12-23T03:20:25.230Z,99239.00
2022-12-23T03:23:06.981Z,99250.00
2022-12-23T03:25:48.328Z,99289.00
2022-12-23T03:28:32.385Z,99210.00
2022-12-23T03:31:15.255Z,99291.00
2022-12-23T03:33:55.876Z,99294.00
2022-12-23T03:36:38.802Z,99280.00
2022-12-23T03:39:17.322Z,99285.00
2022-12-23T03:41:58.044Z,99284.00
2022-12-23T03:44:36.557Z,99287.00
2022-12-23T03:47:15.990Z,99290.00
2022-12-23T03:49:56.538Z,99294.00
2022-12-23T03:52:38.154Z,99299.00
2022-12-23T03:55:21.559Z,99286.00
2022-12-23T03:58:08.503Z,99300.00
2022-12-23T04:00:55.960Z,99298.00
2022-12-23T04:03:41.161Z,99275.00
2022-12-23T04:06:21.223Z,99293.00
2022-12-23T04:08:58.099Z,99264.00
2022-12-23T04:11:32.092Z,99247.00
2022-12-23T04:14:05.679Z,99296.00
2022-12-23T04:16:39.400Z,99247.00
2022-12-23T04:19:13.147Z,99293.00
2022-12-23T04:21:46.785Z,99274.00
2022-12-23T04:24:21.849Z,99311.00
2022-12-23T04:26:55.760Z,99286.00
2022-12-23T04:29:29.276Z,99273.00
2022-12-23T04:32:02.691Z,99319.00
2022-12-23T04:34:36.612Z,99293.00
2022-12-23T04:37:11.467Z,99289.00
2022-12-23T04:39:46.391Z,99298.00
2022-12-23T04:42:20.017Z,99278.00
2022-12-23T04:44:53.734Z,99291.00
2022-12-23T04:47:27.721Z,99279.00
2022-12-23T04:50:01.126Z,99304.00
2022-12-23T04:52:34.996Z,99326.00
2022-12-23T04:55:11.434Z,99318.00
2022-12-23T04:57:45.072Z,99314.00
2022-12-23T05:00:19.900Z,99307.00
2022-12-23T05:02:53.580Z,99317.00
2022-12-23T05:05:30.573Z,99335.00
2022-12-23T05:08:06.689Z,99326.00
2022-12-23T05:10:42.051Z,99292.00
2022-12-23T05:13:15.677Z,99320.00
2022-12-23T05:15:53.533Z,99270.00
2022-12-23T05:18:27.117Z,99330.00
2022-12-23T05:21:00.587Z,99324.00
2022-12-23T05:23:34.121Z,99316.00
2022-12-23T05:26:09.304Z,99320.00
2022-12-23T05:28:43.604Z,99286.00
2022-12-23T05:31:17.746Z,99290.00
2022-12-23T05:33:51.375Z,99320.00
2022-12-23T05:36:25.158Z,99319.00
2022-12-23T05:38:58.821Z,99299.00
2022-12-23T05:41:33.785Z,99319.00
2022-12-23T05:44:08.609Z,99329.00
2022-12-23T05:46:42.434Z,99319.00
2022-12-23T05:49:15.954Z,99323.00
2022-12-23T05:51:49.606Z,99312.00
2022-12-23T05:54:23.491Z,99332.00
2022-12-23T05:56:59.994Z,99331.00
2022-12-23T05:59:34.106Z,99342.00
2022-12-23T06:02:08.064Z,99353.00
2022-12-23T06:04:41.764Z,99322.00
2022-12-23T06:07:15.207Z,99364.00
2022-12-23T06:09:49.741Z,99364.00
2022-12-23T06:12:25.312Z,99374.00
2022-12-23T06:14:58.802Z,99374.00
2022-12-23T06:17:32.778Z,99377.00
2022-12-23T06:20:08.336Z,99389.00
2022-12-23T06:22:42.015Z,99366.00
2022-12-23T06:25:15.986Z,99344.00
2022-12-23T06:27:50.995Z,99376.00
2022-12-23T06:30:24.893Z,99381.00
2022-12-23T06:32:58.542Z,99368.00
2022-12-23T06:35:32.016Z,99374.00
2022-12-23T06:38:11.716Z,99374.00
2022-12-23T06:40:45.874Z,99365.00
2022-12-23T06:43:21.313Z,99357.00
2022-12-23T06:45:55.071Z,99355.00
2022-12-23T06:48:28.705Z,99358.00
2022-12-23T06:51:02.203Z,99364.00
2022-12-23T06:53:36.199Z,99353.00
2022-12-23T06:56:10.363Z,99332.00
2022-12-23T06:58:45.352Z,99355.00
2022-12-23T07:01:19.131Z,99330.00
2022-12-23T07:03:52.679Z,99363.00
2022-12-23T07:06:26.290Z,99368.00
2022-12-23T07:09:00.288Z,99373.00
2022-12-23T07:11:36.006Z,99363.00
2022-12-23T07:14:14.983Z,99376.00
2022-12-23T07:16:48.504Z,99377.00
2022-12-23T07:19:21.969Z,99342.00
2022-12-23T07:21:56.184Z,99367.00
2022-12-23T07:24:31.300Z,99393.00
2022-12-23T07:27:05.351Z,99396.00
2022-12-23T07:29:40.371Z,99412.00
2022-12-23T07:32:14.359Z,99412.00
2022-12-23T07:34:48.769Z,99427.00
2022-12-23T07:37:22.217Z,99434.00
2022-12-23T07:39:55.926Z,99413.00
2022-12-23T07:42:46.657Z,99445.00
2022-12-23T07:45:22.139Z,99431.00
2022-12-23T07:47:56.765Z,99449.00
2022-12-23T07:50:30.425Z,99448.00
2022-12-23T07:53:03.873Z,99443.00
2022-12-23T07:55:37.855Z,99446.00
2022-12-23T07:58:11.393Z,99453.00
2022-12-23T08:00:46.420Z,99423.00
2022-12-23T08:03:20.694Z,99431.00
2022-12-23T08:06:02.679Z,99441.00
2022-12-23T08:08:36.903Z,99415.00
2022-12-23T08:11:15.460Z,99425.00
2022-12-23T08:13:50.153Z,99437.00
2022-12-23T08:16:28.302Z,99421.00
2022-12-23T08:19:01.662Z,99432.00
2022-12-23T08:21:35.554Z,99393.00
2022-12-23T08:24:09.477Z,99422.00
2022-12-23T08:26:44.452Z,99421.00
2022-12-23T08:29:18.424Z,99436.00
2022-12-23T08:31:54.227Z,99419.00
2022-12-23T08:34:27.685Z,99443.00
2022-12-23T08:37:02.325Z,99436.00
2022-12-23T08:39:38.093Z,99434.00
2022-12-23T08:42:16.943Z,99428.00
2022-12-23T08:44:51.591Z,99413.00
2022-12-23T08:47:27.831Z,99431.00
2022-12-23T08:50:02.065Z,99426.00
2022-12-23T08:52:35.953Z,99389.00
2022-12-23T08:55:11.946Z,99395.00
2022-12-23T08:57:45.417Z,99386.00
2022-12-23T09:00:20.164Z,99403.00
2022-12-23T09:02:55.040Z,99431.00
2022-12-23T09:05:29.310Z,99445.00
2022-12-23T09:08:04.151Z,99421.00
2022-12-23T09:10:43.455Z,99413.00
2022-12-23T09:13:26.230Z,99427.00
2022-12-23T09:16:05.105Z,99404.00
2022-12-23T09:18:42.325Z,99419.00
2022-12-23T09:21:18.904Z,99425.00
2022-12-23T09:23:53.574Z,99421.00
2022-12-23T09:26:30.258Z,99421.00
2022-12-23T09:29:04.096Z,99421.00
2022-12-23T09:31:38.243Z,99411.00
2022-12-23T09:34:13.166Z,99437.00
2022-12-23T09:36:50.449Z,99421.00
2022-12-23T09:39:28.384Z,99430.00
2022-12-23T09:42:16.458Z,99389.00
2022-12-23T09:45:06.327Z,99406.00
2022-12-23T09:47:42.704Z,99385.00
2022-12-23T09:50:27.414Z,99391.00
2022-12-23T09:53:06.493Z,99378.00
2022-12-23T09:55:52.063Z,99339.00
2022-12-23T09:58:33.268Z,99365.00
2022-12-23T10:01:23.468Z,99385.00
2022-12-23T10:04:37.727Z,99386.00
2022-12-23T10:07:25.535Z,99345.00
2022-12-23T10:10:04.834Z,99368.00
2022-12-23T10:12:44.689Z,99376.00
2022-12-23T10:15:36.563Z,99382.00
2022-12-23T10:18:23.552Z,99376.00
2022-12-23T10:21:05.480Z,99381.00
2022-12-23T10:23:45.497Z,99331.00
2022-12-23T10:26:30.028Z,99350.00
2022-12-23T10:29:20.403Z,99326.00
2022-12-23T10:32:24.017Z,99329.00
2022-12-23T10:35:14.314Z,99331.00
2022-12-23T10:37:58.695Z,99318.00
2022-12-23T10:40:50.322Z,99326.00
2022-12-23T10:43:38.458Z,99322.00
2022-12-23T10:46:25.066Z,99310.00
2022-12-23T10:49:08.686Z,99297.00
2022-12-23T10:51:51.192Z,99312.00
2022-12-23T10:54:30.533Z,99305.00
2022-12-23T10:57:08.337Z,99309.00
2022-12-23T10:59:41.805Z,99262.00
2022-12-23T11:02:46.641Z,99289.00
2022-12-23T11:05:31.711Z,99251.00
2022-12-23T11:08:05.951Z,99293.00
2022-12-23T11:10:42.050Z,99284.00
2022-12-23T11:13:35.917Z,99286.00
2022-12-23T11:16:24.292Z,99278.00
2022-12-23T11:19:02.956Z,99278.00
2022-12-23T11:21:36.546Z,99269.00
2022-12-23T11:24:21.043Z,99253.00
2022-12-23T11:27:04.145Z,99247.00
2022-12-23T11:29:45.677Z,99227.00
2022-12-23T11:32:25.369Z,99265.00
2022-12-23T11:34:58.978Z,99208.00
2022-12-23T11:37:41.893Z,99252.00
2022-12-23T11:40:29.196Z,99249.00
2022-12-23T11:43:13.165Z,99216.00
2022-12-23T11:45:49.007Z,99243.00
2022-12-23T11:48:31.978Z,99238.00
2022-12-23T11:51:07.114Z,99234.00
2022-12-23T11:53:45.238Z,99229.00
2022-12-23T11:56:24.768Z,99220.00
2022-12-23T11:59:06.965Z,99212.00
2022-12-23T12:01:52.280Z,99200.00
2022-12-23T12:04:29.255Z,99189.00
2022-12-23T12:07:06.721Z,99174.00
2022-12-23T12:09:46.144Z,99192.00
2022-12-23T12:12:22.862Z,99177.00
2022-12-23T12:14:59.268Z,99162.00
2022-12-23T12:17:42.052Z,99125.00
2022-12-23T12:20:32.459Z,99150.00
2022-12-23T12:23:15.915Z,99135.00
2022-12-23T12:25:56.731Z,99126.00
2022-12-23T12:28:39.614Z,99099.00
2022-12-23T12:31:24.336Z,99108.00
2022-12-23T12:34:11.502Z,99107.00
2022-12-23T12:36:56.082Z,99108.00
2022-12-23T12:39:37.269Z,99110.00
2022-12-23T12:42:18.897Z,99112.00
2022-12-23T12:45:03.911Z,99110.00
2022-12-23T12:47:53.813Z,99111.00
2022-12-23T12:50:34.958Z,99103.00
2022-12-23T12:53:19.077Z,99107.00
2022-12-23T12:56:01.208Z,99061.00
2022-12-23T12:58:35.028Z,99093.00
2022-12-23T13:01:44.578Z,99093.00
2022-12-23T13:05:13.283Z,99082.00
2022-12-23T13:08:09.751Z,99075.00
2022-12-23T13:10:50.284Z,99071.00
2022-12-23T13:13:39.816Z,99061.00
2022-12-23T13:16:31.250Z,99012.00
2022-12-23T13:19:19.128Z,99051.00
2022-12-23T13:22:03.069Z,99024.00
2022-12-23T13:25:01.802Z,99013.00
2022-12-23T13:27:45.051Z,99019.00
2022-12-23T13:30:23.798Z,99017.00
2022-12-23T13:33:22.787Z,98984.00
2022-12-23T13:36:14.063Z,98972.00
2022-12-23T13:39:25.395Z,98983.00
2022-12-23T13:42:06.021Z,98968.00
2022-12-23T13:44:40.533Z,98976.00
2022-12-23T13:47:31.120Z,98907.00
2022-12-23T13:50:15.231Z,98957.00
2022-12-23T13:53:11.798Z,98954.00
2022-12-23T13:56:12.501Z,98938.00
2022-12-23T13:58:51.702Z,98924.00
2022-12-23T14:01:44.413Z,98922.00
2022-12-23T14:04:58.955Z,98922.00
2022-12-23T14:07:36.124Z,98909.00
2022-12-23T14:10:23.255Z,98924.00
2022-12-23T14:13:05.108Z,98875.00
2022-12-23T14:16:11.870Z,98903.00
2022-12-23T14:19:10.105Z,98897.00
2022-12-23T14:21:57.839Z,98892.00
2022-12-23T14:25:04.063Z,98866.00
2022-12-23T14:27:58.627Z,98863.00
2022-12-23T14:30:37.346Z,98865.00
2022-12-23T14:33:26.513Z,98848.00
2022-12-23T14:36:23.044Z,98833.00
2022-12-23T14:39:34.527Z,98838.00
2022-12-23T14:42:16.548Z,98826.00
2022-12-23T14:44:51.825Z,98848.00
2022-12-23T14:47:40.463Z,98779.00
2022-12-23T14:50:42.378Z,98765.00
2022-12-23T14:53:25.033Z,98844.00
2022-12-23T14:56:24.980Z,98810.00
2022-12-23T14:59:21.317Z,98814.00
2022-12-23T15:01:59.430Z,98828.00
2022-12-23T15:04:48.059Z,98817.00
2022-12-23T15:07:35.150Z,98802.00
2022-12-23T15:10:19.219Z,98808.00
2022-12-23T15:12:58.131Z,98798.00
2022-12-23T15:15:33.598Z,98785.00
2022-12-23T15:18:12.776Z,98764.00
2022-12-23T15:20:46.459Z,98744.00
2022-12-23T15:23:21.428Z,98791.00
2022-12-23T15:26:00.381Z,98767.00
2022-12-23T15:28:38.799Z,98780.00
2022-12-23T15:31:27.290Z,98759.00
2022-12-23T15:34:11.785Z,98766.00
2022-12-23T15:36:54.453Z,98725.00
2022-12-23T15:39:35.356Z,98777.00
2022-12-23T15:42:23.187Z,98762.00
2022-12-23T15:44:58.383Z,98725.00
2022-12-23T15:47:39.739Z,98791.00
2022-12-23T15:50:17.288Z,98760.00
2022-12-23T15:52:59.056Z,98745.00
2022-12-23T15:55:41.354Z,98787.00
2022-12-23T15:58:25.732Z,98783.00
2022-12-23T16:01:02.103Z,98799.00
2022-12-23T16:03:40.584Z,98796.00
2022-12-23T16:06:25.805Z,98812.00
2022-12-23T16:09:02.696Z,98778.00
2022-12-23T16:11:50.991Z,98800.00
2022-12-23T16:14:37.696Z,98771.00
2022-12-23T16:17:25.458Z,98778.00
2022-12-23T16:20:24.649Z,98750.00
2022-12-23T16:23:03.786Z,98810.00
2022-12-23T16:25:42.180Z,98791.00
2022-12-23T16:28:24.557Z,98813.00
2022-12-23T16:30:59.676Z,98809.00
2022-12-23T16:33:40.026Z,98817.00
2022-12-23T16:36:23.815Z,98806.00
2022-12-23T16:39:04.617Z,98822.00
2022-12-23T16:41:38.569Z,98802.00
2022-12-23T16:44:13.436Z,98792.00
2022-12-23T16:46:51.035Z,98811.00
2022-12-23T16:49:33.165Z,98797.00
2022-12-23T16:52:09.324Z,98829.00
2022-12-23T16:54:43.265Z,98814.00
2022-12-23T16:57:16.726Z,98826.00
2022-12-23T16:59:51.760Z,98833.00
2022-12-23T17:02:34.539Z,98835.00
2022-12-23T17:05:11.740Z,98826.00
2022-12-23T17:07:45.905Z,98832.00
2022-12-23T17:10:20.220Z,98809.00
2022-12-23T17:12:53.733Z,98823.00
2022-12-23T17:15:28.904Z,98817.00
2022-12-23T17:18:02.842Z,98846.00
2022-12-23T17:20:38.402Z,98854.00
2022-12-23T17:23:27.619Z,98861.00
2022-12-23T17:26:03.100Z,98829.00
2022-12-23T17:28:36.883Z,98861.00
2022-12-23T17:31:15.553Z,98862.00
2022-12-23T17:33:54.118Z,98847.00
2022-12-23T17:36:28.809Z,98855.00
2022-12-23T17:39:02.550Z,98865.00
2022-12-23T17:41:36.877Z,98864.00
2022-12-23T17:44:17.055Z,98865.00
2022-12-23T17:46:52.109Z,98882.00
2022-12-23T17:49:25.772Z,98886.00
2022-12-23T17:51:59.329Z,98894.00
2022-12-23T17:54:33.283Z,98875.00
2022-12-23T17:57:20.545Z,98911.00
2022-12-23T17:59:57.056Z,98914.00
2022-12-23T18:02:35.566Z,98917.00
2022-12-23T18:05:23.601Z,98897.00
2022-12-23T18:07:59.390Z,98935.00
2022-12-23T18:10:37.972Z,98925.00
2022-12-23T18:13:19.718Z,98930.00
2022-12-23T18:15:53.219Z,98949.00
2022-12-23T18:18:37.699Z,98905.00
2022-12-23T18:21:22.534Z,98947.00
2022-12-23T18:23:59.634Z,98938.00
2022-12-23T18:26:33.065Z,98964.00
2022-12-23T18:29:07.682Z,98965.00
2022-12-23T18:31:52.343Z,98965.00
2022-12-23T18:34:27.754Z,98981.00
2022-12-23T18:37:01.179Z,98950.00
2022-12-23T18:39:34.852Z,98960.00
2022-12-23T18:42:11.879Z,98949.00
2022-12-23T18:44:48.544Z,98973.00
2022-12-23T18:47:22.893Z,98979.00
2022-12-23T18:50:05.066Z,98983.00
2022-12-23T18:52:38.593Z,98980.00
2022-12-23T18:55:14.007Z,98984.00
2022-12-23T18:57:48.694Z,98990.00
2022-12-23T19:00:25.755Z,99000.00
2022-12-23T19:02:59.480Z,98999.00
2022-12-23T19:05:39.063Z,99018.00
2022-12-23T19:08:12.880Z,99018.00
2022-12-23T19:10:51.190Z,99030.00
2022-12-23T19:13:25.845Z,99024.00
2022-12-23T19:15:59.296Z,99049.00
2022-12-23T19:18:32.889Z,99030.00
2022-12-23T19:21:09.372Z,99034.00
2022-12-23T19:23:44.103Z,99017.00
2022-12-23T19:26:17.812Z,99016.00
2022-12-23T19:28:51.394Z,99038.00
2022-12-23T19:31:25.224Z,99027.00
2022-12-23T19:33:59.032Z,99036.00
2022-12-23T19:36:34.498Z,99052.00
2022-12-23T19:39:07.949Z,99039.00
2022-12-23T19:41:41.787Z,99062.00
2022-12-23T19:44:16.502Z,99025.00
2022-12-23T19:46:50.701Z,99074.00
2022-12-23T19:49:25.421Z,99041.00
2022-12-23T19:52:00.280Z,99020.00
2022-12-23T19:54:34.279Z,99075.00
2022-12-23T19:57:08.612Z,99084.00
2022-12-23T19:59:42.631Z,99070.00
2022-12-23T20:02:17.628Z,99056.00
2022-12-23T20:04:51.425Z,99091.00
2022-12-23T20:07:26.363Z,99054.00
2022-12-23T20:10:01.108Z,99081.00
2022-12-23T20:12:34.910Z,99106.00
2022-12-23T20:15:10.548Z,99085.00
2022-12-23T20:17:44.347Z,99093.00
2022-12-23T20:20:17.998Z,99105.00
2022-12-23T20:22:53.077Z,99107.00
2022-12-23T20:25:26.772Z,99112.00
2022-12-23T20:28:00.355Z,99116.00
2022-12-23T20:30:33.921Z,99125.00
2022-12-23T20:33:07.495Z,99126.00
2022-12-23T20:35:41.447Z,99112.00
2022-12-23T20:38:16.440Z,99138.00
2022-12-23T20:40:49.859Z,99133.00
2022-12-23T20:43:23.377Z,99137.00
2022-12-23T20:45:57.196Z,99105.00
2022-12-23T20:48:34.406Z,99146.00
2022-12-23T20:51:12.231Z,99150.00
2022-12-23T20:53:48.293Z,99168.00
2022-12-23T20:56:27.805Z,99152.00
2022-12-23T20:59:03.671Z,99164.00
2022-12-23T21:01:41.668Z,99134.00
2022-12-23T21:04:17.793Z,99142.00
2022-12-23T21:06:54.311Z,99170.00
2022-12-23T21:09:29.548Z,99184.00
2022-12-23T21:12:03.865Z,99166.00
2022-12-23T21:14:37.774Z,99181.00
2022-12-23T21:17:11.795Z,99178.00
2022-12-23T21:19:46.044Z,99184.00
2022-12-23T21:22:19.594Z,99172.00
2022-12-23T21:24:54.715Z,99160.00
2022-12-23T21:27:29.647Z,99193.00
2022-12-23T21:30:03.676Z,99205.00
2022-12-23T21:32:37.553Z,99205.00
2022-12-23T21:35:11.739Z,99200.00
2022-12-23T21:37:45.310Z,99194.00
2022-12-23T21:40:20.333Z,99203.00
2022-12-23T21:42:53.817Z,99175.00
2022-12-23T21:45:27.135Z,99196.00
2022-12-23T21:48:06.051Z,99214.00
2022-12-23T21:50:39.880Z,99202.00
2022-12-23T21:53:20.129Z,99164.00
2022-12-23T21:55:55.007Z,99246.00
2022-12-23T21:58:28.504Z,99232.00
2022-12-23T22:01:06.953Z,99247.00
2022-12-23T22:03:41.281Z,99250.00
2022-12-23T22:06:18.175Z,99244.00
2022-12-23T22:08:54.040Z,99256.00
2022-12-23T22:11:31.772Z,99270.00
2022-12-23T22:14:08.485Z,99266.00
2022-12-23T22:16:42.226Z,99269.00
2022-12-23T22:19:16.096Z,99276.00
2022-12-23T22:21:49.519Z,99262.00
2022-12-23T22:24:24.903Z,99266.00
2022-12-23T22:27:00.320Z,99279.00
2022-12-23T22:29:34.105Z,99272.00
2022-12-23T22:32:07.702Z,99293.00
2022-12-23T22:34:41.387Z,99293.00
2022-12-23T22:37:14.800Z,99310.00
2022-12-23T22:39:48.584Z,99316.00
2022-12-23T22:42:23.362Z,99323.00
2022-12-23T22:44:57.218Z,99296.00
2022-12-23T22:47:30.791Z,99319.00
2022-12-23T22:50:04.478Z,99323.00
2022-12-23T22:52:38.190Z,99321.00
2022-12-23T22:55:11.711Z,99277.00
2022-12-23T22:57:47.369Z,99331.00
2022-12-23T23:00:21.474Z,99314.00
2022-12-23T23:02:55.068Z,99325.00
2022-12-23T23:05:28.758Z,99336.00
2022-12-23T23:08:02.440Z,99343.00
2022-12-23T23:10:35.942Z,99357.00
2022-12-23T23:13:10.739Z,99331.00
2022-12-23T23:15:46.434Z,99350.00
2022-12-23T23:18:19.873Z,99357.00
2022-12-23T23:20:53.781Z,99370.00
2022-12-23T23:23:27.436Z,99363.00
2022-12-23T23:26:00.981Z,99360.00
2022-12-23T23:28:35.892Z,99356.00
2022-12-23T23:31:40.667Z,99383.00
2022-12-23T23:34:04.123Z,99370.00
2022-12-23T23:36:37.856Z,99366.00
2022-12-23T23:39:13.683Z,99390.00
2022-12-23T23:41:47.283Z,99383.00
2022-12-23T23:44:22.698Z,99375.00
2022-12-23T23:46:56.340Z,99373.00
2022-12-23T23:49:29.847Z,99351.00
2022-12-23T23:52:03.435Z,99389.00
2022-12-23T23:54:37.311Z,99361.00
2022-12-23T23:57:10.918Z,99390.00
2022-12-23T23:59:45.987Z,99396.00
